sensor_id;sensor_type;location;lat;lon;timestamp;pressure;altitude;pressure_sealevel;temperature;humidity
30516;BME280;17297;54.022;10.760;2023-03-14T00:01:32;98642.47;;;13.50;61.04
30516;BME280;17297;54.022;10.760;2023-03-14T00:03:57;98649.75;;;13.49;61.11
30516;BME280;17297;54.022;10.760;2023-03-14T00:06:22;98641.91;;;13.48;61.17
30516;BME280;17297;54.022;10.760;2023-03-14T00:08:48;98642.97;;;13.47;61.29
30516;BME280;17297;54.022;10.760;2023-03-14T00:11:16;98640.28;;;13.47;61.38
30516;BME280;17297;54.022;10.760;2023-03-14T00:13:42;98639.47;;;13.46;61.40
30516;BME280;17297;54.022;10.760;2023-03-14T00:16:12;98635.13;;;13.45;61.47
30516;BME280;17297;54.022;10.760;2023-03-14T00:18:38;98630.81;;;13.44;61.59
30516;BME280;17297;54.022;10.760;2023-03-14T00:21:05;98614.84;;;13.43;61.61
30516;BME280;17297;54.022;10.760;2023-03-14T00:23:32;98611.34;;;13.42;61.73
30516;BME280;17297;54.022;10.760;2023-03-14T00:26:19;98627.03;;;13.40;61.77
30516;BME280;17297;54.022;10.760;2023-03-14T00:28:45;98633.22;;;13.40;61.73
30516;BME280;17297;54.022;10.760;2023-03-14T00:31:13;98633.47;;;13.39;61.83
30516;BME280;17297;54.022;10.760;2023-03-14T00:33:41;98639.97;;;13.38;61.71
30516;BME280;17297;54.022;10.760;2023-03-14T00:36:08;98643.75;;;13.37;61.77
30516;BME280;17297;54.022;10.760;2023-03-14T00:38:37;98645.38;;;13.38;61.88
30516;BME280;17297;54.022;10.760;2023-03-14T00:41:09;98641.56;;;13.34;62.10
30516;BME280;17297;54.022;10.760;2023-03-14T00:43:35;98631.81;;;13.33;62.04
30516;BME280;17297;54.022;10.760;2023-03-14T00:46:00;98636.41;;;13.32;62.01
30516;BME280;17297;54.022;10.760;2023-03-14T00:48:26;98636.41;;;13.32;62.05
30516;BME280;17297;54.022;10.760;2023-03-14T00:50:52;98635.88;;;13.30;62.08
30516;BME280;17297;54.022;10.760;2023-03-14T00:53:17;98641.53;;;13.29;62.19
30516;BME280;17297;54.022;10.760;2023-03-14T00:55:44;98634.50;;;13.28;62.14
30516;BME280;17297;54.022;10.760;2023-03-14T00:58:12;98628.31;;;13.27;62.26
30516;BME280;17297;54.022;10.760;2023-03-14T01:00:38;98632.88;;;13.27;62.21
30516;BME280;17297;54.022;10.760;2023-03-14T01:03:04;98624.78;;;13.27;62.30
30516;BME280;17297;54.022;10.760;2023-03-14T01:05:29;98622.34;;;13.25;62.27
30516;BME280;17297;54.022;10.760;2023-03-14T01:07:55;98616.66;;;13.27;62.27
30516;BME280;17297;54.022;10.760;2023-03-14T01:10:20;98601.81;;;13.24;62.27
30516;BME280;17297;54.022;10.760;2023-03-14T01:12:45;98596.41;;;13.24;62.30
30516;BME280;17297;54.022;10.760;2023-03-14T01:15:11;98593.94;;;13.23;62.27
30516;BME280;17297;54.022;10.760;2023-03-14T01:17:37;98593.94;;;13.23;62.41
30516;BME280;17297;54.022;10.760;2023-03-14T01:20:05;98598.53;;;13.22;62.42
30516;BME280;17297;54.022;10.760;2023-03-14T01:22:31;98608.53;;;13.22;62.41
30516;BME280;17297;54.022;10.760;2023-03-14T01:24:56;98617.69;;;13.21;62.55
30516;BME280;17297;54.022;10.760;2023-03-14T01:27:22;98623.09;;;13.21;62.46
30516;BME280;17297;54.022;10.760;2023-03-14T01:29:47;98638.47;;;13.20;62.57
30516;BME280;17297;54.022;10.760;2023-03-14T01:32:13;98631.19;;;13.21;62.74
30516;BME280;17297;54.022;10.760;2023-03-14T01:34:39;98635.53;;;13.22;62.80
30516;BME280;17297;54.022;10.760;2023-03-14T01:37:04;98630.94;;;13.22;62.78
30516;BME280;17297;54.022;10.760;2023-03-14T01:39:30;98633.63;;;13.22;62.80
30516;BME280;17297;54.022;10.760;2023-03-14T01:41:56;98633.38;;;13.24;62.89
30516;BME280;17297;54.022;10.760;2023-03-14T01:44:21;98636.91;;;13.24;63.01
30516;BME280;17297;54.022;10.760;2023-03-14T01:46:47;98623.41;;;13.24;62.94
30516;BME280;17297;54.022;10.760;2023-03-14T01:49:32;98629.63;;;13.25;63.06
30516;BME280;17297;54.022;10.760;2023-03-14T01:52:11;98613.44;;;13.25;62.99
30516;BME280;17297;54.022;10.760;2023-03-14T01:54:41;98613.44;;;13.25;63.17
30516;BME280;17297;54.022;10.760;2023-03-14T01:57:11;98600.75;;;13.25;63.07
30516;BME280;17297;54.022;10.760;2023-03-14T01:59:40;98602.03;;;13.23;62.99
30516;BME280;17297;54.022;10.760;2023-03-14T02:02:09;98585.34;;;13.26;63.04
30516;BME280;17297;54.022;10.760;2023-03-14T02:04:37;98572.66;;;13.26;62.88
30516;BME280;17297;54.022;10.760;2023-03-14T02:09:39;98561.91;;;13.31;62.99
30516;BME280;17297;54.022;10.760;2023-03-14T02:12:09;98553.22;;;13.29;63.17
30516;BME280;17297;54.022;10.760;2023-03-14T02:14:43;98553.22;;;13.29;63.09
30516;BME280;17297;54.022;10.760;2023-03-14T02:17:26;98557.59;;;13.30;63.10
30516;BME280;17297;54.022;10.760;2023-03-14T02:20:24;98573.78;;;13.30;63.34
30516;BME280;17297;54.022;10.760;2023-03-14T02:22:55;98582.41;;;13.32;63.15
30516;BME280;17297;54.022;10.760;2023-03-14T02:27:57;98573.53;;;13.37;63.29
30516;BME280;17297;54.022;10.760;2023-03-14T02:30:28;98570.03;;;13.36;63.15
30516;BME280;17297;54.022;10.760;2023-03-14T02:32:58;98563.25;;;13.39;63.18
30516;BME280;17297;54.022;10.760;2023-03-14T02:35:28;98554.91;;;13.40;63.22
30516;BME280;17297;54.022;10.760;2023-03-14T02:38:04;98531.97;;;13.43;63.31
30516;BME280;17297;54.022;10.760;2023-03-14T02:40:37;98530.88;;;13.44;63.21
30516;BME280;17297;54.022;10.760;2023-03-14T02:43:02;98529.78;;;13.45;63.11
30516;BME280;17297;54.022;10.760;2023-03-14T02:45:44;98525.19;;;13.46;63.17
30516;BME280;17297;54.022;10.760;2023-03-14T02:48:18;98527.66;;;13.47;63.03
30516;BME280;17297;54.022;10.760;2023-03-14T02:50:46;98531.16;;;13.48;63.09
30516;BME280;17297;54.022;10.760;2023-03-14T02:53:17;98521.97;;;13.49;63.14
30516;BME280;17297;54.022;10.760;2023-03-14T02:55:47;98523.06;;;13.48;63.09
30516;BME280;17297;54.022;10.760;2023-03-14T02:58:16;98530.91;;;13.49;63.10
30516;BME280;17297;54.022;10.760;2023-03-14T03:00:42;98531.72;;;13.50;63.13
30516;BME280;17297;54.022;10.760;2023-03-14T03:03:10;98536.03;;;13.51;63.23
30516;BME280;17297;54.022;10.760;2023-03-14T03:05:35;98543.03;;;13.52;63.11
30516;BME280;17297;54.022;10.760;2023-03-14T03:08:02;98540.34;;;13.52;63.10
30516;BME280;17297;54.022;10.760;2023-03-14T03:10:28;98541.44;;;13.51;63.27
30516;BME280;17297;54.022;10.760;2023-03-14T03:12:54;98543.03;;;13.52;63.16
30516;BME280;17297;54.022;10.760;2023-03-14T03:15:23;98538.47;;;13.52;63.29
30516;BME280;17297;54.022;10.760;2023-03-14T03:17:49;98540.09;;;13.53;63.38
30516;BME280;17297;54.022;10.760;2023-03-14T03:20:15;98535.50;;;13.54;63.36
30516;BME280;17297;54.022;10.760;2023-03-14T03:22:40;98533.88;;;13.53;63.41
30516;BME280;17297;54.022;10.760;2023-03-14T03:25:09;98534.69;;;13.53;63.47
30516;BME280;17297;54.022;10.760;2023-03-14T03:27:35;98531.19;;;13.53;63.41
30516;BME280;17297;54.022;10.760;2023-03-14T03:30:03;98543.59;;;13.54;63.48
30516;BME280;17297;54.022;10.760;2023-03-14T03:32:32;98542.50;;;13.55;63.45
30516;BME280;17297;54.022;10.760;2023-03-14T03:34:57;98539.28;;;13.53;63.50
30516;BME280;17297;54.022;10.760;2023-03-14T03:37:22;98533.59;;;13.54;63.62
30516;BME280;17297;54.022;10.760;2023-03-14T03:39:50;98540.91;;;13.54;63.71
30516;BME280;17297;54.022;10.760;2023-03-14T03:42:16;98527.41;;;13.54;63.72
30516;BME280;17297;54.022;10.760;2023-03-14T03:44:42;98520.91;;;13.55;63.93
30516;BME280;17297;54.022;10.760;2023-03-14T03:47:09;98518.22;;;13.55;63.87
30516;BME280;17297;54.022;10.760;2023-03-14T03:49:34;98508.25;;;13.55;63.72
30516;BME280;17297;54.022;10.760;2023-03-14T03:52:00;98487.69;;;13.54;63.89
30516;BME280;17297;54.022;10.760;2023-03-14T03:54:25;98494.72;;;13.55;63.65
30516;BME280;17297;54.022;10.760;2023-03-14T03:56:51;98482.56;;;13.53;63.81
30516;BME280;17297;54.022;10.760;2023-03-14T03:59:17;98481.47;;;13.54;63.80
30516;BME280;17297;54.022;10.760;2023-03-14T04:01:44;98478.78;;;13.54;63.82
30516;BME280;17297;54.022;10.760;2023-03-14T04:04:09;98476.06;;;13.54;63.75
30516;BME280;17297;54.022;10.760;2023-03-14T04:06:36;98470.97;;;13.52;63.92
30516;BME280;17297;54.022;10.760;2023-03-14T04:09:02;98466.63;;;13.51;63.80
30516;BME280;17297;54.022;10.760;2023-03-14T04:11:57;98466.63;;;13.51;63.89
30516;BME280;17297;54.022;10.760;2023-03-14T04:14:31;98463.09;;;13.51;63.89
30516;BME280;17297;54.022;10.760;2023-03-14T04:17:19;98456.91;;;13.50;63.91
30516;BME280;17297;54.022;10.760;2023-03-14T04:19:45;98457.72;;;13.51;63.90
30516;BME280;17297;54.022;10.760;2023-03-14T04:22:10;98456.91;;;13.50;63.96
30516;BME280;17297;54.022;10.760;2023-03-14T04:24:45;98456.09;;;13.50;64.05
30516;BME280;17297;54.022;10.760;2023-03-14T04:27:10;98448.00;;;13.50;63.99
30516;BME280;17297;54.022;10.760;2023-03-14T04:29:35;98445.28;;;13.50;64.11
30516;BME280;17297;54.022;10.760;2023-03-14T04:32:01;98439.88;;;13.50;63.92
30516;BME280;17297;54.022;10.760;2023-03-14T04:34:26;98439.09;;;13.49;63.99
30516;BME280;17297;54.022;10.760;2023-03-14T04:36:55;98436.63;;;13.48;63.90
30516;BME280;17297;54.022;10.760;2023-03-14T04:39:27;98433.94;;;13.48;64.04
30516;BME280;17297;54.022;10.760;2023-03-14T04:42:02;98430.44;;;13.47;63.93
30516;BME280;17297;54.022;10.760;2023-03-14T04:44:28;98441.47;;;13.46;64.07
30516;BME280;17297;54.022;10.760;2023-03-14T04:46:54;98434.47;;;13.45;63.89
30516;BME280;17297;54.022;10.760;2023-03-14T04:49:20;98430.41;;;13.42;64.13
30516;BME280;17297;54.022;10.760;2023-03-14T04:51:45;98429.59;;;13.42;64.06
30516;BME280;17297;54.022;10.760;2023-03-14T04:54:11;98420.69;;;13.41;64.05
30516;BME280;17297;54.022;10.760;2023-03-14T04:56:37;98418.28;;;13.39;63.98
30516;BME280;17297;54.022;10.760;2023-03-14T04:59:03;98427.44;;;13.38;64.14
30516;BME280;17297;54.022;10.760;2023-03-14T05:01:30;98428.53;;;13.37;64.12
30516;BME280;17297;54.022;10.760;2023-03-14T05:04:09;98422.31;;;13.37;64.16
30516;BME280;17297;54.022;10.760;2023-03-14T05:06:49;98422.56;;;13.35;64.13
30516;BME280;17297;54.022;10.760;2023-03-14T05:09:27;98420.69;;;13.36;64.06
30516;BME280;17297;54.022;10.760;2023-03-14T05:12:01;98419.88;;;13.35;64.32
30516;BME280;17297;54.022;10.760;2023-03-14T05:14:35;98427.72;;;13.37;64.13
30516;BME280;17297;54.022;10.760;2023-03-14T05:17:17;98423.13;;;13.37;64.08
30516;BME280;17297;54.022;10.760;2023-03-14T05:20:03;98414.75;;;13.39;64.20
30516;BME280;17297;54.022;10.760;2023-03-14T05:22:49;98424.75;;;13.38;64.12
30516;BME280;17297;54.022;10.760;2023-03-14T05:25:42;98428.78;;;13.41;64.25
30516;BME280;17297;54.022;10.760;2023-03-14T05:28:23;98455.53;;;13.43;64.37
30516;BME280;17297;54.022;10.760;2023-03-14T05:31:08;98439.31;;;13.43;64.21
30516;BME280;17297;54.022;10.760;2023-03-14T05:33:53;98444.19;;;13.40;63.97
30516;BME280;17297;54.022;10.760;2023-03-14T05:36:57;98454.16;;;13.35;63.57
30516;BME280;17297;54.022;10.760;2023-03-14T05:39:41;98460.38;;;13.30;63.81
30516;BME280;17297;54.022;10.760;2023-03-14T05:42:33;98449.78;;;13.24;63.76
30516;BME280;17297;54.022;10.760;2023-03-14T05:45:15;98453.00;;;13.21;63.81
30516;BME280;17297;54.022;10.760;2023-03-14T05:47:59;98458.94;;;13.17;63.87
30516;BME280;17297;54.022;10.760;2023-03-14T05:50:36;98458.13;;;13.12;63.70
30516;BME280;17297;54.022;10.760;2023-03-14T05:53:23;98447.88;;;13.09;63.81
30516;BME280;17297;54.022;10.760;2023-03-14T05:55:54;98450.00;;;13.07;64.01
30516;BME280;17297;54.022;10.760;2023-03-14T05:58:32;98443.25;;;13.04;64.04
30516;BME280;17297;54.022;10.760;2023-03-14T06:01:30;98440.81;;;13.03;63.92
30516;BME280;17297;54.022;10.760;2023-03-14T06:04:06;98437.56;;;13.01;63.88
30516;BME280;17297;54.022;10.760;2023-03-14T06:06:32;98446.47;;;13.01;64.05
30516;BME280;17297;54.022;10.760;2023-03-14T06:08:59;98447.56;;;13.00;64.13
30516;BME280;17297;54.022;10.760;2023-03-14T06:11:24;98440.56;;;12.99;64.24
30516;BME280;17297;54.022;10.760;2023-03-14T06:13:50;98447.00;;;12.98;64.18
30516;BME280;17297;54.022;10.760;2023-03-14T06:16:16;98438.09;;;12.98;64.45
30516;BME280;17297;54.022;10.760;2023-03-14T06:18:41;98426.50;;;12.97;64.45
30516;BME280;17297;54.022;10.760;2023-03-14T06:21:08;98422.19;;;12.96;64.59
30516;BME280;17297;54.022;10.760;2023-03-14T06:23:34;98417.03;;;12.94;64.46
30516;BME280;17297;54.022;10.760;2023-03-14T06:26:01;98419.19;;;12.92;64.74
30516;BME280;17297;54.022;10.760;2023-03-14T06:28:27;98412.16;;;12.91;64.67
30516;BME280;17297;54.022;10.760;2023-03-14T06:30:59;98415.97;;;12.90;64.80
30516;BME280;17297;54.022;10.760;2023-03-14T06:33:24;98416.22;;;12.89;64.91
30516;BME280;17297;54.022;10.760;2023-03-14T06:35:49;98420.25;;;12.86;64.83
30516;BME280;17297;54.022;10.760;2023-03-14T06:38:18;98420.50;;;12.85;64.92
30516;BME280;17297;54.022;10.760;2023-03-14T06:40:44;98431.56;;;12.83;65.10
30516;BME280;17297;54.022;10.760;2023-03-14T06:43:13;98435.34;;;12.82;64.83
30516;BME280;17297;54.022;10.760;2023-03-14T06:45:41;98429.94;;;12.82;65.07
30516;BME280;17297;54.022;10.760;2023-03-14T06:48:06;98444.53;;;12.81;65.03
30516;BME280;17297;54.022;10.760;2023-03-14T06:50:39;98448.81;;;12.82;65.11
30516;BME280;17297;54.022;10.760;2023-03-14T06:53:04;98441.53;;;12.83;65.10
30516;BME280;17297;54.022;10.760;2023-03-14T06:55:31;98439.66;;;12.83;65.21
30516;BME280;17297;54.022;10.760;2023-03-14T06:57:56;98445.88;;;12.84;65.35
30516;BME280;17297;54.022;10.760;2023-03-14T07:00:22;98446.41;;;12.86;65.23
30516;BME280;17297;54.022;10.760;2023-03-14T07:02:51;98455.34;;;12.91;65.43
30516;BME280;17297;54.022;10.760;2023-03-14T07:05:23;98457.78;;;12.98;65.55
30516;BME280;17297;54.022;10.760;2023-03-14T07:07:48;98453.78;;;13.06;65.50
30516;BME280;17297;54.022;10.760;2023-03-14T07:10:15;98450.84;;;13.12;65.54
30516;BME280;17297;54.022;10.760;2023-03-14T07:12:40;98448.69;;;13.20;65.50
30516;BME280;17297;54.022;10.760;2023-03-14T07:15:06;98453.34;;;13.34;65.73
30516;BME280;17297;54.022;10.760;2023-03-14T07:17:32;98458.25;;;13.48;65.57
30516;BME280;17297;54.022;10.760;2023-03-14T07:19:57;98455.03;;;13.56;65.36
30516;BME280;17297;54.022;10.760;2023-03-14T07:22:24;98465.28;;;13.59;65.28
30516;BME280;17297;54.022;10.760;2023-03-14T07:24:50;98468.50;;;13.61;65.15
30516;BME280;17297;54.022;10.760;2023-03-14T07:27:15;98457.44;;;13.57;65.06
30516;BME280;17297;54.022;10.760;2023-03-14T07:29:40;98462.31;;;13.55;65.14
30516;BME280;17297;54.022;10.760;2023-03-14T07:32:07;98461.22;;;13.56;65.06
30516;BME280;17297;54.022;10.760;2023-03-14T07:34:33;98467.44;;;13.57;65.07
30516;BME280;17297;54.022;10.760;2023-03-14T07:36:59;98458.25;;;13.63;65.16
30516;BME280;17297;54.022;10.760;2023-03-14T07:39:24;98467.19;;;13.79;65.31
30516;BME280;17297;54.022;10.760;2023-03-14T07:41:58;98465.31;;;14.00;65.24
30516;BME280;17297;54.022;10.760;2023-03-14T07:44:45;98470.16;;;14.23;64.89
30516;BME280;17297;54.022;10.760;2023-03-14T07:47:10;98477.72;;;14.31;64.48
30516;BME280;17297;54.022;10.760;2023-03-14T07:49:35;98470.97;;;14.34;64.33
30516;BME280;17297;54.022;10.760;2023-03-14T07:52:01;98476.38;;;14.34;64.23
30516;BME280;17297;54.022;10.760;2023-03-14T07:54:26;98468.53;;;14.32;64.28
30516;BME280;17297;54.022;10.760;2023-03-14T07:56:52;98482.34;;;14.31;64.19
30516;BME280;17297;54.022;10.760;2023-03-14T07:59:17;98462.59;;;14.30;64.26
30516;BME280;17297;54.022;10.760;2023-03-14T08:01:43;98475.03;;;14.31;64.34
30516;BME280;17297;54.022;10.760;2023-03-14T08:04:08;98473.69;;;14.39;64.40
30516;BME280;17297;54.022;10.760;2023-03-14T08:06:35;98481.75;;;14.44;64.31
30516;BME280;17297;54.022;10.760;2023-03-14T08:09:00;98470.69;;;14.46;64.19
30516;BME280;17297;54.022;10.760;2023-03-14T08:11:26;98484.22;;;14.46;64.12
30516;BME280;17297;54.022;10.760;2023-03-14T08:13:51;98476.09;;;14.41;64.25
30516;BME280;17297;54.022;10.760;2023-03-14T08:16:17;98482.59;;;14.35;64.06
30516;BME280;17297;54.022;10.760;2023-03-14T08:18:44;98483.44;;;14.30;64.09
30516;BME280;17297;54.022;10.760;2023-03-14T08:21:09;98492.34;;;14.25;64.12
30516;BME280;17297;54.022;10.760;2023-03-14T08:23:35;98486.66;;;14.22;64.17
30516;BME280;17297;54.022;10.760;2023-03-14T08:26:00;98481.81;;;14.19;64.33
30516;BME280;17297;54.022;10.760;2023-03-14T08:28:25;98483.69;;;14.18;64.32
30516;BME280;17297;54.022;10.760;2023-03-14T08:30:56;98491.00;;;14.18;64.27
30516;BME280;17297;54.022;10.760;2023-03-14T08:33:22;98485.06;;;14.21;64.41
30516;BME280;17297;54.022;10.760;2023-03-14T08:35:47;98486.38;;;14.23;64.54
30516;BME280;17297;54.022;10.760;2023-03-14T08:38:13;98488.03;;;14.24;64.23
30516;BME280;17297;54.022;10.760;2023-03-14T08:40:41;98476.41;;;14.24;64.26
30516;BME280;17297;54.022;10.760;2023-03-14T08:43:06;98485.06;;;14.21;64.09
30516;BME280;17297;54.022;10.760;2023-03-14T08:45:31;98478.28;;;14.18;64.08
30516;BME280;17297;54.022;10.760;2023-03-14T08:47:57;98479.09;;;14.14;63.95
30516;BME280;17297;54.022;10.760;2023-03-14T08:50:23;98482.63;;;14.09;63.81
30516;BME280;17297;54.022;10.760;2023-03-14T08:52:49;98496.69;;;14.06;63.78
30516;BME280;17297;54.022;10.760;2023-03-14T08:55:15;98489.91;;;14.03;63.61
30516;BME280;17297;54.022;10.760;2023-03-14T08:57:40;98486.66;;;14.01;63.86
30516;BME280;17297;54.022;10.760;2023-03-14T09:00:06;98490.72;;;14.04;63.84
30516;BME280;17297;54.022;10.760;2023-03-14T09:02:38;98497.75;;;14.05;63.83
30516;BME280;17297;54.022;10.760;2023-03-14T09:05:04;98497.19;;;14.08;63.89
30516;BME280;17297;54.022;10.760;2023-03-14T09:07:29;98503.97;;;14.10;63.87
30516;BME280;17297;54.022;10.760;2023-03-14T09:09:54;98511.25;;;14.10;63.87
30516;BME280;17297;54.022;10.760;2023-03-14T09:12:20;98502.06;;;14.11;63.84
30516;BME280;17297;54.022;10.760;2023-03-14T09:14:45;98504.50;;;14.07;63.88
30516;BME280;17297;54.022;10.760;2023-03-14T09:17:11;98504.78;;;14.06;63.98
30516;BME280;17297;54.022;10.760;2023-03-14T09:19:36;98508.56;;;14.05;63.98
30516;BME280;17297;54.022;10.760;2023-03-14T09:22:02;98498.81;;;14.04;64.14
30516;BME280;17297;54.022;10.760;2023-03-14T09:24:27;98508.84;;;14.03;64.13
30516;BME280;17297;54.022;10.760;2023-03-14T09:26:54;98508.28;;;14.01;64.22
30516;BME280;17297;54.022;10.760;2023-03-14T09:29:20;98507.22;;;14.02;64.14
30516;BME280;17297;54.022;10.760;2023-03-14T09:31:45;98497.22;;;14.03;64.23
30516;BME280;17297;54.022;10.760;2023-03-14T09:34:10;98500.72;;;14.03;64.10
30516;BME280;17297;54.022;10.760;2023-03-14T09:36:36;98507.22;;;14.02;64.26
30516;BME280;17297;54.022;10.760;2023-03-14T09:39:03;98508.56;;;14.05;64.27
30516;BME280;17297;54.022;10.760;2023-03-14T09:41:32;98502.59;;;14.08;64.46
30516;BME280;17297;54.022;10.760;2023-03-14T09:44:14;98506.13;;;14.14;64.45
30516;BME280;17297;54.022;10.760;2023-03-14T09:46:44;98503.16;;;14.20;64.57
30516;BME280;17297;54.022;10.760;2023-03-14T09:49:24;98494.78;;;14.27;64.49
30516;BME280;17297;54.022;10.760;2023-03-14T09:51:53;98503.69;;;14.32;64.36
30516;BME280;17297;54.022;10.760;2023-03-14T09:54:46;98504.22;;;14.40;64.39
30516;BME280;17297;54.022;10.760;2023-03-14T09:57:21;98507.19;;;14.43;64.21
30516;BME280;17297;54.022;10.760;2023-03-14T09:59:56;98515.28;;;14.48;64.22
30516;BME280;17297;54.022;10.760;2023-03-14T10:02:26;98519.38;;;14.51;64.12
30516;BME280;17297;54.022;10.760;2023-03-14T10:04:54;98522.09;;;14.51;64.21
30516;BME280;17297;54.022;10.760;2023-03-14T10:07:29;98524.25;;;14.49;64.17
30516;BME280;17297;54.022;10.760;2023-03-14T10:09:54;98531.25;;;14.50;64.00
30516;BME280;17297;54.022;10.760;2023-03-14T10:12:31;98529.09;;;14.42;64.05
30516;BME280;17297;54.022;10.760;2023-03-14T10:15:06;98612.16;;;14.36;64.03
30516;BME280;17297;54.022;10.760;2023-03-14T10:17:42;98644.53;;;14.10;62.41
30516;BME280;17297;54.022;10.760;2023-03-14T10:20:32;98671.66;;;13.58;61.62
30516;BME280;17297;54.022;10.760;2023-03-14T10:23:23;98689.59;;;12.94;61.23
30516;BME280;17297;54.022;10.760;2023-03-14T10:26:13;98712.88;;;12.41;61.71
30516;BME280;17297;54.022;10.760;2023-03-14T10:28:53;98725.41;;;12.04;62.18
30516;BME280;17297;54.022;10.760;2023-03-14T10:31:25;98727.97;;;11.76;62.11
30516;BME280;17297;54.022;10.760;2023-03-14T10:34:20;98740.03;;;11.52;62.42
30516;BME280;17297;54.022;10.760;2023-03-14T10:36:46;98757.84;;;11.36;62.21
30516;BME280;17297;54.022;10.760;2023-03-14T10:39:30;98767.25;;;11.17;62.10
30516;BME280;17297;54.022;10.760;2023-03-14T10:42:14;98787.13;;;10.99;62.45
30516;BME280;17297;54.022;10.760;2023-03-14T10:44:42;98794.59;;;10.80;62.01
30516;BME280;17297;54.022;10.760;2023-03-14T10:47:19;98805.00;;;10.59;62.00
30516;BME280;17297;54.022;10.760;2023-03-14T10:49:47;98814.16;;;10.47;61.98
30516;BME280;17297;54.022;10.760;2023-03-14T10:52:27;98828.09;;;10.32;62.07
30516;BME280;17297;54.022;10.760;2023-03-14T10:55:09;98833.47;;;10.20;62.40
30516;BME280;17297;54.022;10.760;2023-03-14T10:57:39;98845.16;;;10.14;62.45
30516;BME280;17297;54.022;10.760;2023-03-14T11:00:06;98863.03;;;10.08;62.52
30516;BME280;17297;54.022;10.760;2023-03-14T11:05:58;98895.41;;;9.90;62.49
30516;BME280;17297;54.022;10.760;2023-03-14T11:08:31;98890.59;;;9.80;62.48
30516;BME280;17297;54.022;10.760;2023-03-14T11:11:11;98896.09;;;9.74;62.66
30516;BME280;17297;54.022;10.760;2023-03-14T11:13:45;98905.69;;;9.69;62.39
30516;BME280;17297;54.022;10.760;2023-03-14T11:19:40;98920.69;;;9.59;62.81
30516;BME280;17297;54.022;10.760;2023-03-14T11:27:44;98954.56;;;9.60;62.76
30516;BME280;17297;54.022;10.760;2023-03-14T11:30:34;98959.09;;;9.59;62.86
30516;BME280;17297;54.022;10.760;2023-03-14T11:33:12;98963.91;;;9.57;62.86
30516;BME280;17297;54.022;10.760;2023-03-14T11:38:15;98998.34;;;9.60;62.52
30516;BME280;17297;54.022;10.760;2023-03-14T11:40:44;99002.91;;;9.60;62.77
30516;BME280;17297;54.022;10.760;2023-03-14T11:43:35;98997.28;;;9.61;62.83
30516;BME280;17297;54.022;10.760;2023-03-14T11:48:45;99007.09;;;9.67;62.68
30516;BME280;17297;54.022;10.760;2023-03-14T11:51:35;99023.00;;;9.69;62.83
30516;BME280;17297;54.022;10.760;2023-03-14T11:54:20;99037.00;;;9.71;62.66
30516;BME280;17297;54.022;10.760;2023-03-14T11:56:53;99042.38;;;9.71;62.53
30516;BME280;17297;54.022;10.760;2023-03-14T11:59:42;99037.69;;;9.66;62.16
30516;BME280;17297;54.022;10.760;2023-03-14T12:06:16;99052.75;;;9.67;62.60
30516;BME280;17297;54.022;10.760;2023-03-14T12:08:49;99054.75;;;9.72;62.30
30516;BME280;17297;54.022;10.760;2023-03-14T12:11:20;99063.63;;;9.73;62.29
30516;BME280;17297;54.022;10.760;2023-03-14T12:13:49;99073.47;;;9.79;62.23
30516;BME280;17297;54.022;10.760;2023-03-14T12:18:51;99078.63;;;9.92;62.28
30516;BME280;17297;54.022;10.760;2023-03-14T12:21:17;99084.97;;;9.98;62.20
30516;BME280;17297;54.022;10.760;2023-03-14T12:23:54;99090.69;;;10.01;62.26
30516;BME280;17297;54.022;10.760;2023-03-14T12:26:22;99099.34;;;10.03;61.78
30516;BME280;17297;54.022;10.760;2023-03-14T12:44:43;99127.44;;;10.19;61.62
30516;BME280;17297;54.022;10.760;2023-03-14T12:49:44;99142.78;;;10.30;61.39
30516;BME280;17297;54.022;10.760;2023-03-14T12:52:16;99132.75;;;10.37;61.63
30516;BME280;17297;54.022;10.760;2023-03-14T12:54:48;99145.50;;;10.42;61.34
30516;BME280;17297;54.022;10.760;2023-03-14T12:59:51;99145.03;;;10.45;61.10
30516;BME280;17297;54.022;10.760;2023-03-14T13:02:21;99159.28;;;10.46;60.92
30516;BME280;17297;54.022;10.760;2023-03-14T13:04:59;99170.50;;;10.43;60.88
30516;BME280;17297;54.022;10.760;2023-03-14T13:07:35;99173.66;;;10.39;61.07
30516;BME280;17297;54.022;10.760;2023-03-14T13:10:24;99187.91;;;10.40;60.98
30516;BME280;17297;54.022;10.760;2023-03-14T13:15:42;99200.41;;;10.34;60.85
30516;BME280;17297;54.022;10.760;2023-03-14T13:18:38;99204.13;;;10.33;60.98
30516;BME280;17297;54.022;10.760;2023-03-14T13:23:38;99219.31;;;10.28;60.52
30516;BME280;17297;54.022;10.760;2023-03-14T13:26:11;99236.09;;;10.23;60.71
30516;BME280;17297;54.022;10.760;2023-03-14T13:28:38;99246.94;;;10.16;60.26
30516;BME280;17297;54.022;10.760;2023-03-14T13:31:04;99246.88;;;10.05;60.60
30516;BME280;17297;54.022;10.760;2023-03-14T13:33:31;99254.41;;;9.96;60.50
30516;BME280;17297;54.022;10.760;2023-03-14T13:36:05;99275.16;;;9.89;60.97
30516;BME280;17297;54.022;10.760;2023-03-14T13:38:33;99266.94;;;9.84;60.94
30516;BME280;17297;54.022;10.760;2023-03-14T13:41:00;99265.75;;;9.80;61.15
30516;BME280;17297;54.022;10.760;2023-03-14T13:43:31;99275.31;;;9.76;61.22
30516;BME280;17297;54.022;10.760;2023-03-14T13:46:12;99276.94;;;9.77;61.39
30516;BME280;17297;54.022;10.760;2023-03-14T13:48:59;99282.69;;;9.80;61.63
30516;BME280;17297;54.022;10.760;2023-03-14T13:51:26;99308.66;;;9.86;61.65
30516;BME280;17297;54.022;10.760;2023-03-14T13:53:56;99306.34;;;9.90;61.72
30516;BME280;17297;54.022;10.760;2023-03-14T13:56:28;99312.94;;;9.94;61.78
30516;BME280;17297;54.022;10.760;2023-03-14T13:58:54;99309.81;;;9.97;61.74
30516;BME280;17297;54.022;10.760;2023-03-14T14:01:26;99312.03;;;10.00;61.60
30516;BME280;17297;54.022;10.760;2023-03-14T14:03:55;99323.97;;;10.04;61.56